View Single Post
Old Dec 08, 2012, 05:49 AM
ztoon13 is offline
Find More Posts by ztoon13
Gone with the Mistral
ztoon13's Avatar
France, PACA, 13
Joined Jun 2012
177 Posts
Hi happy flyers,

Quote:
Originally Posted by stonecutter View Post
I don't fly the v911 outside much, this morning had a slight breeze (I estimate 5-10 mph). So took the white clone w/ the msr paddles out for a spin.
Nice flying Stonecutter, I also like to fly outside when it's windy, this mod is more and more desirable....
But today, no contest with the wind:
2012/12/08 11:30 LFML 081130Z 33029G41KT 9999 FEW023 07/M01 Q1012 NOSIG
How did you remove the paint from your (red?)/white canopy? I find it easy to remove paint from the blades but somehow difficult from the plastic of the canopy.

Quote:
Originally Posted by nizzamms View Post
just wanna share my video V911 with fire works ..looks like little nitro microhelicopter LOL
Someone had to try that !! You did it ! I want to see a rocket booster copter as version 2 please.

@+
Olivier
ztoon13 is offline Find More Posts by ztoon13
Reply With Quote